首页
METAR-TAF:

METAR-TAF

机场 :

乌塔保国际机场

芭達亞-Rayong, 泰国

纬度: 12-38N, 经度: 101-21E, 海拔: 3米

当前天气观测

该预报发布于22分钟前的05:30 UTC
风速4节,风向南转南东
温度 29°C
湿度 66%
气压 1013 hPa
能見度: 6000
少量云层高于2000英尺, 积雨云.
多云层高于10000英尺

METAR: VTBU 120530Z 15004KT 6000 FEW020CB BKN100 29/22 Q1013 NOSIG

时间: 12:52 (05:52 UTC)

预报

该预报发布于52分钟前的05:00 UTC
预报有效从12日的 06点(UTC)到 13日的 06点(UTC)
风速8节,风向
能見度: 7000
少量云层高于2000英尺
散云层高于10000英尺
短暂存在
从 12日的 06点(UTC)到 12日的 11点(UTC)
少量云层高于2000英尺, 积雨云.
成为
从 12日的 11点(UTC)到 12日的 13点(UTC)
风速6节,风向北转东北
能見度: 5000
轻雾

TAF: VTBU 120500Z 1206/1306 17008KT 7000 FEW020 SCT100 TEMPO 1206/1211 FEW020CB BECMG 1211/1213 02006KT 5000 BR

超过4000个机场的气象观测和天气预报(METAR&TAF报告)。

可查询的气象台以黄色和红色小点在地图上表示。

将鼠标移到小点上方,可查看气象台名称。

然后点击查看天气观测和预报。

如需切换地图:点击带黑十字的绿色按钮放大地图;点击带横线的绿色按钮缩小地图;或者点击绿色箭头查看邻近地区的地图。


METAR-TAF: